Time;durP1;ratioP1;P1;durP2;ratioP2;P2;SDS_P1;SDS_P2;PMS_P1;PMS_P2;Temp;Humidity;BMP_temperature;BMP_pressure;BME280_temperature;BME280_humidity;BME280_pressure;Samples;Min_cycle;Max_cycle;Signal;HPM_P1;HPM_P2
2022/04/03 00:00:37;;;;;;;34.55;17.23;;;;;;;;;;5138073;27;20011;-71
2022/04/03 00:03:04;;;;;;;43.92;18.20;;;;;;;;;;5120467;27;20023;-71
2022/04/03 00:05:35;;;;;;;39.55;15.90;;;;;;;;;;5138797;27;20030;-71
2022/04/03 00:08:01;;;;;;;32.78;16.73;;;;;;;;;;5138544;27;20023;-71
2022/04/03 00:10:26;;;;;;;30.63;16.35;;;;;;;;;;5138498;27;20023;-71
2022/04/03 00:12:52;;;;;;;35.63;13.57;;;;;;;;;;5138244;27;20393;-71
2022/04/03 00:15:18;;;;;;;26.63;13.57;;;;;;;;;;5120264;27;20027;-71
2022/04/03 00:20:19;;;;;;;48.53;21.70;;;;;;;;;;5371997;22;20267;-73
2022/04/03 00:22:48;;;;;;;66.72;26.95;;;;;;;;;;5097440;28;20024;-73
2022/04/03 00:25:14;;;;;;;58.20;21.27;;;;;;;;;;5097766;28;20432;-73
2022/04/03 00:27:40;;;;;;;42.47;17.95;;;;;;;;;;5097695;28;20020;-73
2022/04/03 00:30:07;;;;;;;27.67;11.85;;;;;;;;;;5080088;28;20081;-73
2022/04/03 00:32:33;;;;;;;31.08;13.15;;;;;;;;;;5062796;28;20026;-72
2022/04/03 00:34:59;;;;;;;22.02;10.98;;;;;;;;;;5097382;28;20429;-73
2022/04/03 00:37:25;;;;;;;27.75;11.73;;;;;;;;;;5097579;28;20016;-73
2022/04/03 00:39:51;;;;;;;27.73;12.52;;;;;;;;;;5079361;28;20024;-73
2022/04/03 00:42:17;;;;;;;20.38;10.35;;;;;;;;;;5096872;28;20489;-72
2022/04/03 00:44:43;;;;;;;27.20;12.85;;;;;;;;;;5097246;28;20016;-73
2022/04/03 00:47:11;;;;;;;30.42;15.00;;;;;;;;;;5096810;28;20429;-73
2022/04/03 00:49:37;;;;;;;31.90;13.57;;;;;;;;;;5097266;28;20077;-72
2022/04/03 00:52:03;;;;;;;25.67;11.63;;;;;;;;;;5062610;28;20024;-73
2022/04/03 00:54:29;;;;;;;27.67;10.95;;;;;;;;;;5096997;28;20378;-73
2022/04/03 00:56:55;;;;;;;30.48;14.05;;;;;;;;;;5078762;28;20016;-73
2022/04/03 00:59:22;;;;;;;35.00;17.27;;;;;;;;;;5097456;28;20020;-73
2022/04/03 01:01:48;;;;;;;41.95;21.15;;;;;;;;;;5097627;28;20030;-73
2022/04/03 01:04:14;;;;;;;40.95;20.35;;;;;;;;;;5078671;28;20066;-74
2022/04/03 01:06:40;;;;;;;54.47;24.38;;;;;;;;;;5096685;28;20020;-72
2022/04/03 01:09:06;;;;;;;48.42;23.10;;;;;;;;;;5096512;28;20019;-72
2022/04/03 01:11:32;;;;;;;55.10;23.73;;;;;;;;;;5097197;28;20024;-73
2022/04/03 01:13:58;;;;;;;40.38;20.05;;;;;;;;;;5095675;28;20345;-73
2022/04/03 01:16:24;;;;;;;41.45;17.73;;;;;;;;;;5097019;28;20027;-73
2022/04/03 01:18:51;;;;;;;41.03;16.30;;;;;;;;;;5060035;28;20031;-73
2022/04/03 01:21:17;;;;;;;36.65;16.63;;;;;;;;;;5076318;28;20449;-73
2022/04/03 01:23:45;;;;;;;35.42;16.95;;;;;;;;;;5072754;28;20028;-73
2022/04/03 01:26:11;;;;;;;33.58;14.55;;;;;;;;;;5058868;28;20021;-73
2022/04/03 01:28:37;;;;;;;29.73;12.35;;;;;;;;;;5043091;28;20028;-73
2022/04/03 01:31:03;;;;;;;32.28;11.27;;;;;;;;;;5074961;28;20119;-73
2022/04/03 01:33:29;;;;;;;38.05;11.55;;;;;;;;;;5079590;28;20020;-73
2022/04/03 01:35:55;;;;;;;27.08;12.45;;;;;;;;;;5081404;28;20460;-73
2022/04/03 01:38:21;;;;;;;32.03;12.77;;;;;;;;;;5081391;28;20016;-73
2022/04/03 01:40:47;;;;;;;52.33;17.80;;;;;;;;;;5081665;28;20447;-73
2022/04/03 01:43:13;;;;;;;32.55;12.48;;;;;;;;;;5081107;28;20432;-73
2022/04/03 01:45:41;;;;;;;34.17;12.93;;;;;;;;;;5064711;28;20350;-73
2022/04/03 01:48:11;;;;;;;27.23;12.00;;;;;;;;;;5047940;28;20113;-73
2022/04/03 01:50:37;;;;;;;27.40;14.00;;;;;;;;;;5063385;28;20261;-73
2022/04/03 01:53:03;;;;;;;24.80;12.23;;;;;;;;;;5081406;28;20020;-73
2022/04/03 01:55:29;;;;;;;30.25;11.13;;;;;;;;;;5062373;28;20106;-73
2022/04/03 01:57:55;;;;;;;28.50;11.15;;;;;;;;;;5079984;28;20122;-73
2022/04/03 02:00:22;;;;;;;30.15;12.25;;;;;;;;;;5062445;28;20127;-73
2022/04/03 02:02:50;;;;;;;39.13;13.35;;;;;;;;;;5080285;28;20017;-73
2022/04/03 02:05:16;;;;;;;34.63;14.57;;;;;;;;;;5079887;28;20495;-73
2022/04/03 02:07:43;;;;;;;31.83;14.80;;;;;;;;;;5080439;28;20024;-73
2022/04/03 02:10:09;;;;;;;57.75;22.27;;;;;;;;;;5080126;28;20024;-73
2022/04/03 02:12:35;;;;;;;63.92;28.77;;;;;;;;;;5061833;28;20379;-73
2022/04/03 02:15:02;;;;;;;44.40;23.38;;;;;;;;;;5079560;28;20319;-74
2022/04/03 02:17:27;;;;;;;47.85;22.27;;;;;;;;;;5061488;28;20432;-73
2022/04/03 02:19:54;;;;;;;33.65;15.70;;;;;;;;;;5073835;28;20030;-73
2022/04/03 02:22:20;;;;;;;49.55;15.82;;;;;;;;;;5081884;28;20020;-73
2022/04/03 02:24:46;;;;;;;34.40;16.17;;;;;;;;;;5099901;28;20051;-73
2022/04/03 02:27:12;;;;;;;45.72;16.98;;;;;;;;;;5099833;28;20016;-74
2022/04/03 02:29:38;;;;;;;40.30;16.75;;;;;;;;;;5099781;28;20027;-73
2022/04/03 02:32:04;;;;;;;35.55;14.55;;;;;;;;;;5065117;28;20100;-74
2022/04/03 02:34:30;;;;;;;59.58;15.85;;;;;;;;;;5081272;28;20036;-73
2022/04/03 02:36:56;;;;;;;40.45;16.85;;;;;;;;;;5099547;28;20022;-74
2022/04/03 02:39:22;;;;;;;44.33;18.27;;;;;;;;;;5081406;28;20020;-73
2022/04/03 02:41:48;;;;;;;50.17;19.95;;;;;;;;;;5081768;28;20094;-73
2022/04/03 02:44:15;;;;;;;45.50;23.38;;;;;;;;;;5080553;28;20026;-73
2022/04/03 02:46:42;;;;;;;55.80;22.05;;;;;;;;;;5081600;28;20478;-73
2022/04/03 02:49:08;;;;;;;61.03;23.05;;;;;;;;;;5081316;28;20024;-73
2022/04/03 02:51:35;;;;;;;38.17;18.48;;;;;;;;;;5081268;28;20016;-73
2022/04/03 02:54:01;;;;;;;41.33;17.02;;;;;;;;;;5081050;28;20035;-73
2022/04/03 02:56:27;;;;;;;41.15;16.15;;;;;;;;;;5099225;28;20103;-74
2022/04/03 02:58:53;;;;;;;41.20;20.08;;;;;;;;;;5099180;28;20040;-73
2022/04/03 03:01:20;;;;;;;33.03;17.48;;;;;;;;;;5098761;28;20113;-74
2022/04/03 03:03:46;;;;;;;30.35;17.63;;;;;;;;;;5080837;28;20020;-73
2022/04/03 03:06:12;;;;;;;43.30;19.75;;;;;;;;;;5098763;28;20053;-73
2022/04/03 03:08:38;;;;;;;38.13;17.90;;;;;;;;;;5082164;28;20020;-74
2022/04/03 03:11:04;;;;;;;38.30;18.85;;;;;;;;;;5099355;28;20471;-73
2022/04/03 03:13:30;;;;;;;37.15;20.02;;;;;;;;;;5099512;28;20020;-73
2022/04/03 03:15:56;;;;;;;43.30;17.55;;;;;;;;;;5099472;28;20035;-73
2022/04/03 03:18:22;;;;;;;37.63;16.70;;;;;;;;;;5099093;28;20052;-73
2022/04/03 03:20:49;;;;;;;41.15;17.60;;;;;;;;;;5081004;28;20032;-73
2022/04/03 03:23:15;;;;;;;31.33;14.85;;;;;;;;;;5099709;28;20046;-73
2022/04/03 03:25:41;;;;;;;39.83;14.05;;;;;;;;;;5098351;28;20119;-73
2022/04/03 03:28:08;;;;;;;33.55;13.98;;;;;;;;;;5081378;28;20028;-73
2022/04/03 03:30:34;;;;;;;25.65;13.07;;;;;;;;;;5080465;28;20417;-73
2022/04/03 03:33:00;;;;;;;26.77;12.07;;;;;;;;;;5064632;28;20558;-74
2022/04/03 03:35:27;;;;;;;42.20;12.32;;;;;;;;;;5080119;28;20130;-74
2022/04/03 03:37:53;;;;;;;47.25;14.75;;;;;;;;;;5081350;28;20095;-73
2022/04/03 03:40:19;;;;;;;32.55;12.63;;;;;;;;;;5101215;28;20027;-74
2022/04/03 03:42:45;;;;;;;36.75;14.95;;;;;;;;;;5098850;28;20474;-74
2022/04/03 03:45:12;;;;;;;43.72;13.50;;;;;;;;;;5099807;28;20020;-74
2022/04/03 03:47:38;;;;;;;31.73;14.45;;;;;;;;;;5063821;28;20023;-75
2022/04/03 03:50:04;;;;;;;30.77;12.38;;;;;;;;;;5099148;28;20042;-75
2022/04/03 03:52:30;;;;;;;58.92;15.25;;;;;;;;;;5099016;28;20457;-73
2022/04/03 03:54:56;;;;;;;51.17;16.35;;;;;;;;;;5098935;28;20036;-74
2022/04/03 03:57:22;;;;;;;36.97;13.68;;;;;;;;;;5065506;28;20020;-73
2022/04/03 03:59:48;;;;;;;44.40;14.82;;;;;;;;;;5081432;28;20371;-73
2022/04/03 04:02:14;;;;;;;46.72;13.52;;;;;;;;;;5080886;28;20138;-72
2022/04/03 04:04:40;;;;;;;26.42;10.15;;;;;;;;;;5080868;28;20435;-73
2022/04/03 04:07:06;;;;;;;28.17;10.30;;;;;;;;;;5063863;28;20342;-73
2022/04/03 04:09:32;;;;;;;25.38;10.30;;;;;;;;;;5081547;28;20077;-72
2022/04/03 04:11:58;;;;;;;22.85;10.38;;;;;;;;;;5099802;28;20020;-73
2022/04/03 04:14:24;;;;;;;20.65;9.60;;;;;;;;;;5081612;28;20035;-72
2022/04/03 04:16:50;;;;;;;22.77;8.77;;;;;;;;;;5098519;28;20024;-74
2022/04/03 04:19:16;;;;;;;22.13;8.55;;;;;;;;;;5091764;28;20052;-73
2022/04/03 04:21:42;;;;;;;23.13;9.27;;;;;;;;;;5077821;28;20032;-72
2022/04/03 04:24:10;;;;;;;24.40;9.32;;;;;;;;;;5060440;28;20040;-73
2022/04/03 04:26:36;;;;;;;27.25;9.60;;;;;;;;;;5043846;28;20020;-73
2022/04/03 04:29:03;;;;;;;38.63;10.52;;;;;;;;;;5043415;28;20055;-74
2022/04/03 04:31:30;;;;;;;26.77;11.50;;;;;;;;;;5043488;28;20032;-74
2022/04/03 04:33:56;;;;;;;20.55;9.35;;;;;;;;;;5043350;28;20025;-72
2022/04/03 04:36:22;;;;;;;28.20;10.48;;;;;;;;;;5061241;28;20021;-73
2022/04/03 04:38:48;;;;;;;36.75;12.10;;;;;;;;;;5074695;28;20314;-72
2022/04/03 04:41:14;;;;;;;22.55;10.10;;;;;;;;;;5079568;28;20031;-73
2022/04/03 04:43:40;;;;;;;19.83;9.05;;;;;;;;;;5043975;28;20016;-73
2022/04/03 04:46:06;;;;;;;19.70;9.02;;;;;;;;;;5056480;28;20100;-72
2022/04/03 04:48:34;;;;;;;20.40;8.95;;;;;;;;;;5073207;28;20373;-73
2022/04/03 04:51:01;;;;;;;31.80;10.50;;;;;;;;;;5077097;28;20041;-73
2022/04/03 04:53:27;;;;;;;22.15;8.38;;;;;;;;;;5078482;28;20372;-74
2022/04/03 04:55:54;;;;;;;19.40;8.40;;;;;;;;;;5060166;28;20067;-73
2022/04/03 04:58:20;;;;;;;24.63;10.82;;;;;;;;;;5090473;22;20142;-73
2022/04/03 05:00:46;;;;;;;24.00;9.18;;;;;;;;;;5137874;28;20047;-73
2022/04/03 05:03:12;;;;;;;35.75;9.82;;;;;;;;;;5138339;28;20030;-73
2022/04/03 05:05:39;;;;;;;30.08;10.25;;;;;;;;;;5139462;28;20023;-73
2022/04/03 05:08:05;;;;;;;18.10;8.98;;;;;;;;;;5141130;27;20374;-74
2022/04/03 05:10:31;;;;;;;21.50;8.77;;;;;;;;;;5143389;27;20023;-74
2022/04/03 05:12:58;;;;;;;18.58;7.60;;;;;;;;;;5142326;27;20023;-73
2022/04/03 05:15:24;;;;;;;14.90;8.32;;;;;;;;;;5143278;27;20034;-74
2022/04/03 05:17:50;;;;;;;29.30;10.48;;;;;;;;;;5143078;27;20019;-73
2022/04/03 05:20:16;;;;;;;24.80;9.55;;;;;;;;;;5144110;27;20027;-73
2022/04/03 05:22:43;;;;;;;20.38;9.85;;;;;;;;;;5107871;27;20412;-73
2022/04/03 05:25:11;;;;;;;17.42;8.10;;;;;;;;;;5142573;27;20019;-72
2022/04/03 05:27:37;;;;;;;25.27;7.80;;;;;;;;;;5142448;27;20015;-72
2022/04/03 05:30:03;;;;;;;17.88;8.07;;;;;;;;;;5123911;27;20416;-72
2022/04/03 05:32:31;;;;;;;20.50;7.88;;;;;;;;;;5124254;27;20023;-73
2022/04/03 05:34:58;;;;;;;29.05;7.93;;;;;;;;;;5142400;27;20050;-73
2022/04/03 05:37:25;;;;;;;25.25;8.45;;;;;;;;;;5143035;27;20079;-72
2022/04/03 05:39:51;;;;;;;19.08;8.00;;;;;;;;;;5143960;27;20023;-74
2022/04/03 05:42:18;;;;;;;26.05;9.98;;;;;;;;;;5124674;27;20122;-72
2022/04/03 05:44:44;;;;;;;19.33;8.40;;;;;;;;;;5124807;27;20022;-73
2022/04/03 05:47:10;;;;;;;23.58;8.20;;;;;;;;;;5143114;27;20023;-75
2022/04/03 05:49:37;;;;;;;19.75;7.55;;;;;;;;;;5143032;27;20019;-74
2022/04/03 05:52:03;;;;;;;24.05;9.50;;;;;;;;;;5125667;27;20407;-74
2022/04/03 05:54:30;;;;;;;24.27;10.25;;;;;;;;;;5124599;27;20027;-74
2022/04/03 05:56:56;;;;;;;27.13;9.65;;;;;;;;;;5143953;27;20045;-73
2022/04/03 05:59:23;;;;;;;37.13;11.90;;;;;;;;;;5136348;27;20031;-74
2022/04/03 06:01:49;;;;;;;26.80;9.20;;;;;;;;;;5143624;27;20048;-73
2022/04/03 06:04:16;;;;;;;41.35;14.52;;;;;;;;;;5164201;27;20023;-74
2022/04/03 06:06:42;;;;;;;32.67;13.75;;;;;;;;;;5145372;27;20123;-73
2022/04/03 06:09:08;;;;;;;33.30;11.43;;;;;;;;;;5145438;27;20433;-73
2022/04/03 06:11:35;;;;;;;28.25;10.95;;;;;;;;;;5163663;27;20033;-73
2022/04/03 06:14:01;;;;;;;43.53;13.65;;;;;;;;;;5145652;27;20339;-74
2022/04/03 06:16:28;;;;;;;41.58;13.27;;;;;;;;;;5144064;22;20032;-74
2022/04/03 06:18:55;;;;;;;30.67;11.30;;;;;;;;;;5100199;28;20476;-72
2022/04/03 06:21:22;;;;;;;27.73;11.20;;;;;;;;;;5101893;28;20024;-74
2022/04/03 06:23:48;;;;;;;25.60;11.27;;;;;;;;;;5100973;28;20064;-74
2022/04/03 06:26:14;;;;;;;29.55;11.60;;;;;;;;;;5084549;28;20329;-73
2022/04/03 06:28:40;;;;;;;29.80;11.90;;;;;;;;;;5084443;28;20038;-72
2022/04/03 06:31:07;;;;;;;24.38;12.35;;;;;;;;;;5101068;28;20465;-72
2022/04/03 06:33:34;;;;;;;35.80;14.60;;;;;;;;;;5082713;28;20016;-73
2022/04/03 06:36:02;;;;;;;36.47;13.68;;;;;;;;;;5082863;28;20028;-73
2022/04/03 06:38:29;;;;;;;34.42;11.85;;;;;;;;;;5082256;28;20341;-73
2022/04/03 06:40:57;;;;;;;29.52;13.52;;;;;;;;;;5102811;28;20486;-72
2022/04/03 06:43:24;;;;;;;39.20;13.07;;;;;;;;;;5099795;28;20051;-72
2022/04/03 06:45:51;;;;;;;26.30;12.32;;;;;;;;;;5082708;28;20020;-73
2022/04/03 06:48:18;;;;;;;30.33;12.23;;;;;;;;;;5067479;28;20543;-73
2022/04/03 06:50:44;;;;;;;25.60;11.40;;;;;;;;;;5082465;28;20020;-71
2022/04/03 06:53:11;;;;;;;38.15;13.63;;;;;;;;;;5083120;28;20023;-72
2022/04/03 06:55:37;;;;;;;22.20;10.75;;;;;;;;;;5066061;28;20028;-73
2022/04/03 06:58:03;;;;;;;27.35;10.52;;;;;;;;;;5082585;28;20337;-72
2022/04/03 07:00:29;;;;;;;26.38;11.25;;;;;;;;;;5100726;28;20024;-73
2022/04/03 07:02:55;;;;;;;24.63;11.85;;;;;;;;;;5065535;28;20123;-73
2022/04/03 07:05:21;;;;;;;25.58;10.40;;;;;;;;;;5082594;28;20043;-72
2022/04/03 07:07:50;;;;;;;40.58;11.52;;;;;;;;;;5101570;28;20444;-73
2022/04/03 07:10:16;;;;;;;26.90;12.55;;;;;;;;;;5066744;28;20020;-73
2022/04/03 07:12:42;;;;;;;26.42;12.68;;;;;;;;;;5100309;28;20028;-73
2022/04/03 07:15:12;;;;;;;31.48;13.55;;;;;;;;;;5100883;28;20035;-73
2022/04/03 07:17:38;;;;;;;28.97;12.43;;;;;;;;;;5084326;28;20024;-73
2022/04/03 07:20:06;;;;;;;34.50;12.13;;;;;;;;;;5066840;28;20016;-72
2022/04/03 07:22:32;;;;;;;37.67;12.45;;;;;;;;;;5101269;28;20020;-72
2022/04/03 07:24:58;;;;;;;29.42;12.02;;;;;;;;;;5101793;28;20330;-72
2022/04/03 07:27:24;;;;;;;25.23;11.48;;;;;;;;;;5082173;28;20064;-73
2022/04/03 07:29:51;;;;;;;29.13;11.68;;;;;;;;;;5081973;28;20020;-73
2022/04/03 07:32:17;;;;;;;47.55;11.65;;;;;;;;;;5082217;28;20016;-72
2022/04/03 07:34:43;;;;;;;30.27;12.88;;;;;;;;;;5067146;28;20039;-73
2022/04/03 07:37:10;;;;;;;25.13;10.95;;;;;;;;;;5082146;28;20020;-72
2022/04/03 07:39:36;;;;;;;29.35;11.00;;;;;;;;;;5099335;28;20051;-73
2022/04/03 07:42:03;;;;;;;25.63;9.05;;;;;;;;;;5080762;28;20020;-72
2022/04/03 07:44:29;;;;;;;29.42;10.02;;;;;;;;;;5099537;28;20376;-73
2022/04/03 07:46:55;;;;;;;43.22;11.35;;;;;;;;;;5099259;28;20038;-72
2022/04/03 07:49:21;;;;;;;28.55;9.57;;;;;;;;;;5100181;28;20020;-72
2022/04/03 07:51:48;;;;;;;14.23;7.57;;;;;;;;;;5065060;28;20114;-73
2022/04/03 07:54:14;;;;;;;28.77;10.30;;;;;;;;;;5081619;28;20520;-72
2022/04/03 07:56:40;;;;;;;23.40;8.23;;;;;;;;;;5082533;28;20068;-73
2022/04/03 07:59:07;;;;;;;27.75;10.27;;;;;;;;;;5082021;28;20391;-72
2022/04/03 08:01:34;;;;;;;22.60;9.88;;;;;;;;;;5080722;28;20043;-73
2022/04/03 08:04:04;;;;;;;21.38;9.95;;;;;;;;;;5100782;28;20020;-73
2022/04/03 08:06:30;;;;;;;15.25;7.93;;;;;;;;;;5065138;28;20347;-73
2022/04/03 08:08:56;;;;;;;17.77;7.18;;;;;;;;;;5100180;28;20027;-73
2022/04/03 08:11:23;;;;;;;32.60;10.15;;;;;;;;;;5101631;28;20024;-73
2022/04/03 08:13:49;;;;;;;15.25;7.80;;;;;;;;;;5101913;28;20379;-76
2022/04/03 08:16:16;;;;;;;16.77;7.72;;;;;;;;;;5067232;28;20031;-73
2022/04/03 08:18:42;;;;;;;17.90;8.20;;;;;;;;;;5100641;28;20016;-73
2022/04/03 08:21:08;;;;;;;19.42;7.20;;;;;;;;;;5099187;28;20024;-73
2022/04/03 08:23:34;;;;;;;18.27;7.75;;;;;;;;;;5099675;28;20035;-72
2022/04/03 08:26:00;;;;;;;84.90;13.98;;;;;;;;;;5080542;28;20321;-72
2022/04/03 08:28:28;;;;;;;20.02;7.07;;;;;;;;;;5099050;28;20035;-73
2022/04/03 08:30:54;;;;;;;20.42;8.00;;;;;;;;;;5064030;28;20085;-73
2022/04/03 08:33:21;;;;;;;20.25;9.43;;;;;;;;;;5081066;28;20031;-74
2022/04/03 08:35:50;;;;;;;17.58;7.97;;;;;;;;;;5080540;28;20340;-73
2022/04/03 08:38:17;;;;;;;23.90;6.75;;;;;;;;;;5080741;28;20039;-72
2022/04/03 08:40:43;;;;;;;21.50;6.50;;;;;;;;;;5098484;28;20030;-74
2022/04/03 08:43:10;;;;;;;16.17;6.75;;;;;;;;;;5063815;28;20302;-73
2022/04/03 08:45:36;;;;;;;27.05;6.88;;;;;;;;;;5098215;28;20509;-72
2022/04/03 08:48:02;;;;;;;14.18;6.40;;;;;;;;;;5080494;28;20056;-72
2022/04/03 08:50:35;;;;;;;15.27;7.15;;;;;;;;;;5080888;28;20024;-72
2022/04/03 08:53:03;;;;;;;26.77;8.27;;;;;;;;;;5079950;28;20020;-72
2022/04/03 08:55:29;;;;;;;9.65;5.07;;;;;;;;;;5081600;28;20067;-73
2022/04/03 08:57:55;;;;;;;16.00;4.78;;;;;;;;;;5081538;28;20016;-72
2022/04/03 09:00:21;;;;;;;19.77;6.50;;;;;;;;;;5097731;28;20073;-74
2022/04/03 09:02:47;;;;;;;11.60;4.20;;;;;;;;;;5079912;28;20019;-73
2022/04/03 09:05:17;;;;;;;21.33;5.95;;;;;;;;;;5080302;28;20020;-73
2022/04/03 09:07:43;;;;;;;25.40;8.48;;;;;;;;;;5064526;28;20023;-73
2022/04/03 09:10:11;;;;;;;14.98;5.57;;;;;;;;;;5080088;28;20337;-72
2022/04/03 09:12:47;;;;;;;14.02;5.40;;;;;;;;;;5099095;28;20020;-73
2022/04/03 09:15:14;;;;;;;16.15;5.55;;;;;;;;;;5097770;28;20098;-73
2022/04/03 09:17:44;;;;;;;13.68;5.15;;;;;;;;;;5098798;28;20034;-72
2022/04/03 09:20:14;;;;;;;12.33;4.53;;;;;;;;;;5098197;28;20023;-72
2022/04/03 09:22:40;;;;;;;;;;;;;;;;;;5064778;28;20081;-73
2022/04/03 09:25:09;;;;;;;14.98;6.35;;;;;;;;;;5097634;28;20198;-73
2022/04/03 09:27:54;;;;;;;16.50;5.07;;;;;;;;;;5063742;28;20131;-73
2022/04/03 09:30:28;;;;;;;17.50;4.93;;;;;;;;;;5098821;28;20035;-72
2022/04/03 09:32:55;;;;;;;17.83;5.72;;;;;;;;;;5064515;28;20031;-71
2022/04/03 09:35:24;;;;;;;15.48;4.93;;;;;;;;;;5080639;28;20337;-73
2022/04/03 09:38:05;;;;;;;13.00;4.57;;;;;;;;;;5081478;28;20425;-73
2022/04/03 09:40:33;;;;;;;17.73;5.13;;;;;;;;;;5098938;28;20019;-73
2022/04/03 09:43:12;;;;;;;16.70;4.88;;;;;;;;;;5098609;28;20416;-73
2022/04/03 09:45:45;;;;;;;17.33;5.75;;;;;;;;;;5063183;28;20024;-72
2022/04/03 09:48:22;;;;;;;21.30;5.63;;;;;;;;;;5062470;28;20115;-72
2022/04/03 09:51:07;;;;;;;18.15;5.32;;;;;;;;;;5080383;28;20012;-72
2022/04/03 09:53:40;;;;;;;20.42;6.28;;;;;;;;;;5081591;28;20036;-73
2022/04/03 09:56:07;;;;;;;19.67;6.65;;;;;;;;;;5079543;22;20078;-73
2022/04/03 09:58:38;;;;;;;15.02;4.82;;;;;;;;;;5059339;28;20060;-73
2022/04/03 10:01:23;;;;;;;12.88;4.18;;;;;;;;;;5082171;28;20098;-73
2022/04/03 10:03:50;;;;;;;16.80;4.90;;;;;;;;;;5081251;28;20020;-72
2022/04/03 10:06:16;;;;;;;17.35;4.70;;;;;;;;;;5064070;28;20016;-73
2022/04/03 10:08:43;;;;;;;22.60;4.65;;;;;;;;;;5081459;28;20024;-73
2022/04/03 10:11:09;;;;;;;13.40;4.68;;;;;;;;;;5071831;28;20024;-73
2022/04/03 10:13:36;;;;;;;35.58;5.65;;;;;;;;;;5041962;28;20032;-73
2022/04/03 10:16:04;;;;;;;18.73;5.00;;;;;;;;;;5062351;28;20349;-73
2022/04/03 10:18:30;;;;;;;18.23;4.75;;;;;;;;;;5062019;28;20299;-73
2022/04/03 10:20:56;;;;;;;29.92;6.95;;;;;;;;;;5080508;28;20028;-72
2022/04/03 10:23:24;;;;;;;19.05;4.75;;;;;;;;;;5061865;28;20373;-73
2022/04/03 10:25:52;;;;;;;40.10;9.63;;;;;;;;;;5046317;28;20044;-73
2022/04/03 10:28:19;;;;;;;19.45;7.97;;;;;;;;;;5080698;28;20028;-73
2022/04/03 10:30:45;;;;;;;20.58;4.45;;;;;;;;;;5059286;28;20342;-72
2022/04/03 10:33:19;;;;;;;20.38;3.45;;;;;;;;;;5081165;28;20077;-74
2022/04/03 10:35:49;;;;;;;20.60;5.60;;;;;;;;;;5059201;28;20029;-72
2022/04/03 10:38:15;;;;;;;25.08;5.25;;;;;;;;;;5081613;28;20055;-73
2022/04/03 10:40:55;;;;;;;18.13;6.43;;;;;;;;;;5061939;28;20429;-72
2022/04/03 10:43:31;;;;;;;56.97;9.97;;;;;;;;;;5079539;28;20020;-72
2022/04/03 10:45:57;;;;;;;38.50;6.25;;;;;;;;;;5045869;28;20291;-73
2022/04/03 10:48:26;;;;;;;25.92;4.72;;;;;;;;;;5079504;28;20070;-72
2022/04/03 10:51:03;;;;;;;18.00;4.80;;;;;;;;;;5062287;28;20023;-73
2022/04/03 10:53:31;;;;;;;12.63;4.55;;;;;;;;;;5061934;28;20032;-73
2022/04/03 10:55:58;;;;;;;17.02;6.43;;;;;;;;;;5062399;28;20032;-73
2022/04/03 10:58:24;;;;;;;21.52;4.07;;;;;;;;;;5100897;28;20055;-73
2022/04/03 11:00:50;;;;;;;30.30;7.88;;;;;;;;;;5082232;28;20054;-73
2022/04/03 11:03:20;;;;;;;17.42;4.38;;;;;;;;;;5078363;28;20448;-73
2022/04/03 11:05:47;;;;;;;13.35;6.18;;;;;;;;;;5077562;28;20311;-72
2022/04/03 11:08:13;;;;;;;14.85;4.65;;;;;;;;;;5092071;28;20035;-72
2022/04/03 11:10:57;;;;;;;14.88;4.57;;;;;;;;;;5100108;28;20024;-73
2022/04/03 11:13:32;;;;;;;34.58;6.63;;;;;;;;;;5099351;28;20065;-73
2022/04/03 11:16:06;;;;;;;20.92;5.45;;;;;;;;;;5065829;28;20031;-73
2022/04/03 11:18:58;;;;;;;18.45;6.07;;;;;;;;;;5065399;28;20016;-72
2022/04/03 11:21:25;;;;;;;26.38;7.43;;;;;;;;;;5073264;28;20025;-73
2022/04/03 11:24:00;;;;;;;19.33;7.10;;;;;;;;;;5126120;22;20040;-73
2022/04/03 11:26:26;;;;;;;31.60;7.72;;;;;;;;;;5120828;28;20022;-73
2022/04/03 11:28:52;;;;;;;18.20;5.10;;;;;;;;;;5119974;28;20019;-73
2022/04/03 11:31:18;;;;;;;15.95;4.30;;;;;;;;;;5120102;28;20049;-73
2022/04/03 11:33:46;;;;;;;29.52;5.82;;;;;;;;;;5118973;28;20111;-73
2022/04/03 11:36:13;;;;;;;15.73;4.85;;;;;;;;;;5119922;28;20092;-73
2022/04/03 11:38:40;;;;;;;15.77;4.47;;;;;;;;;;5120639;28;20012;-73
2022/04/03 11:41:10;;;;;;;29.25;5.43;;;;;;;;;;5118931;28;20019;-73
2022/04/03 11:43:36;;;;;;;23.25;5.03;;;;;;;;;;5120583;28;20356;-72
2022/04/03 11:46:03;;;;;;;32.92;6.05;;;;;;;;;;5121625;28;20027;-73
2022/04/03 11:48:31;;;;;;;18.60;4.95;;;;;;;;;;5119499;28;20417;-73
2022/04/03 11:51:03;;;;;;;20.95;5.10;;;;;;;;;;5101610;28;20095;-73
2022/04/03 11:53:29;;;;;;;18.67;6.00;;;;;;;;;;5101382;28;20016;-73
2022/04/03 11:55:56;;;;;;;22.00;7.13;;;;;;;;;;5118690;28;20032;-73
2022/04/03 11:58:42;;;;;;;24.88;7.80;;;;;;;;;;5118393;28;20028;-73
2022/04/03 12:01:09;;;;;;;14.10;5.53;;;;;;;;;;5102437;28;20016;-73
2022/04/03 12:03:36;;;;;;;43.35;7.55;;;;;;;;;;5119229;28;20420;-73
2022/04/03 12:06:14;;;;;;;27.08;6.93;;;;;;;;;;5118471;28;20407;-73
2022/04/03 12:08:41;;;;;;;21.27;8.35;;;;;;;;;;5120000;28;20043;-73
2022/04/03 12:11:16;;;;;;;33.15;7.35;;;;;;;;;;5118313;28;20019;-72
2022/04/03 12:13:42;;;;;;;17.60;4.60;;;;;;;;;;5100679;28;20020;-73
2022/04/03 12:16:08;;;;;;;30.70;6.32;;;;;;;;;;5118511;28;20041;-73
2022/04/03 12:18:58;;;;;;;30.40;11.63;;;;;;;;;;5135296;27;20476;-73
2022/04/03 12:21:39;;;;;;;17.42;5.25;;;;;;;;;;5109584;28;20033;-73
2022/04/03 12:24:12;;;;;;;24.00;7.57;;;;;;;;;;5134033;27;20037;-73
2022/04/03 12:26:42;;;;;;;14.60;5.88;;;;;;;;;;5121508;22;20100;-73
2022/04/03 12:29:09;;;;;;;32.67;6.53;;;;;;;;;;5123179;28;20325;-73
2022/04/03 12:31:35;;;;;;;33.50;10.07;;;;;;;;;;5120962;28;20028;-73
2022/04/03 12:34:18;;;;;;;26.58;8.95;;;;;;;;;;5119876;28;20046;-73
2022/04/03 12:36:43;;;;;;;36.28;10.40;;;;;;;;;;5084066;28;20043;-73
2022/04/03 12:39:29;;;;;;;21.67;10.15;;;;;;;;;;5100571;28;20076;-73
2022/04/03 12:41:56;;;;;;;27.48;10.02;;;;;;;;;;5100101;28;20305;-73
2022/04/03 12:44:23;;;;;;;34.80;9.73;;;;;;;;;;5085643;28;20023;-73
2022/04/03 12:46:49;;;;;;;44.70;11.63;;;;;;;;;;5119023;28;20024;-72
2022/04/03 12:49:21;;;;;;;29.30;8.35;;;;;;;;;;5119521;28;20340;-72
2022/04/03 12:51:48;;;;;;;24.85;7.57;;;;;;;;;;5085326;28;20016;-73
2022/04/03 12:54:18;;;;;;;19.77;9.30;;;;;;;;;;5103927;28;20050;-73
2022/04/03 12:59:37;;;;;;;23.10;8.13;;;;;;;;;;5102223;28;20043;-73
2022/04/03 13:02:04;;;;;;;42.53;11.50;;;;;;;;;;5084136;28;20019;-73
2022/04/03 13:04:31;;;;;;;26.45;7.95;;;;;;;;;;5119246;28;20020;-72
2022/04/03 13:06:58;;;;;;;41.03;9.73;;;;;;;;;;5119406;28;20405;-73
2022/04/03 13:09:24;;;;;;;29.33;7.65;;;;;;;;;;5101777;28;20015;-74
2022/04/03 13:11:51;;;;;;;31.98;7.63;;;;;;;;;;5101055;28;20022;-73
2022/04/03 13:14:27;;;;;;;19.50;6.10;;;;;;;;;;5101510;28;20047;-73
2022/04/03 13:16:54;;;;;;;29.13;7.70;;;;;;;;;;5099611;28;20022;-73
2022/04/03 13:19:24;;;;;;;23.48;5.65;;;;;;;;;;5118817;28;20198;-73
2022/04/03 13:21:50;;;;;;;;;;;;;;;;;;5101346;28;20016;-73
2022/04/03 13:24:16;;;;;;;22.10;7.57;;;;;;;;;;5100523;28;19911;-73
2022/04/03 13:26:42;;;;;;;19.98;7.20;;;;;;;;;;5101207;28;20047;-72
2022/04/03 13:29:09;;;;;;;22.65;6.97;;;;;;;;;;5106078;28;20019;-73
2022/04/03 13:31:36;;;;;;;25.48;7.45;;;;;;;;;;5105317;28;20027;-73
2022/04/03 13:34:03;;;;;;;30.13;9.02;;;;;;;;;;5105282;28;20520;-73
2022/04/03 13:36:29;;;;;;;29.25;7.40;;;;;;;;;;5105127;28;20030;-73
2022/04/03 13:38:55;;;;;;;30.55;8.55;;;;;;;;;;5086754;28;20027;-73
2022/04/03 13:41:21;;;;;;;19.42;7.95;;;;;;;;;;5104503;28;20027;-73
2022/04/03 13:43:47;;;;;;;35.55;9.48;;;;;;;;;;5121990;28;20020;-73
2022/04/03 13:46:14;;;;;;;33.92;8.73;;;;;;;;;;5121272;28;20023;-73
2022/04/03 13:48:41;;;;;;;27.83;9.18;;;;;;;;;;5107222;28;20015;-73
2022/04/03 13:51:07;;;;;;;35.35;11.23;;;;;;;;;;5104696;28;20062;-73
2022/04/03 13:53:34;;;;;;;43.13;12.15;;;;;;;;;;5121902;28;20019;-73
2022/04/03 13:56:01;;;;;;;36.35;11.85;;;;;;;;;;5121840;28;20165;-73
2022/04/03 13:58:27;;;;;;;35.72;13.32;;;;;;;;;;5104564;28;20069;-72
2022/04/03 14:00:53;;;;;;;42.00;14.80;;;;;;;;;;5121649;28;20361;-72
2022/04/03 14:03:22;;;;;;;37.72;13.32;;;;;;;;;;5105416;28;20433;-73
2022/04/03 14:05:49;;;;;;;21.98;10.10;;;;;;;;;;5104980;28;20032;-72
2022/04/03 14:08:18;;;;;;;37.67;10.60;;;;;;;;;;5104772;28;20024;-72
2022/04/03 14:10:46;;;;;;;35.17;10.55;;;;;;;;;;5125323;28;20015;-73
2022/04/03 14:13:19;;;;;;;35.47;11.13;;;;;;;;;;5111864;28;20012;-73
2022/04/03 14:15:48;;;;;;;37.42;11.30;;;;;;;;;;5108576;28;20114;-73
2022/04/03 14:18:16;;;;;;;31.73;8.98;;;;;;;;;;5106313;28;20015;-73
2022/04/03 14:20:42;;;;;;;30.08;8.60;;;;;;;;;;5123702;28;20023;-72
2022/04/03 14:23:09;;;;;;;18.67;8.52;;;;;;;;;;5104722;28;20022;-72
2022/04/03 14:25:36;;;;;;;24.20;8.02;;;;;;;;;;5106655;28;20358;-72
2022/04/03 14:28:03;;;;;;;25.17;8.45;;;;;;;;;;5124800;28;20433;-73
2022/04/03 14:30:29;;;;;;;30.25;9.50;;;;;;;;;;5088635;28;20368;-72